Ishoj, Denmark
Current Conditions -  °F | °C
As of 3:20 AM on Thursday 23 Oct 2014 (Local Time) from EKRK Reporting Station
Broken Clouds Broken Clouds  
Wind Chill: 50°   Ceiling: 1000
Heat Index: 50°   Visibility: 6mi
Dew Point: 50°   Wind: 9mph
Humidity: 100%   Direction: 90°E
Pressure: 30.03"   Gusts: NA
Location:  55.62°N, 12.35°E
Report Text: EKRK 230120Z AUTO 09008KT 9999NDV FEW007/// BKN010///BKN017/// 10/10 Q1017
Loading
Personal Weather Stations






























Interactive Weather Map
Tropical Storm Tracking
New forecast layout! Learn more

10-Day Weather Forecast

Advertisements
Track Severe Weather on mobile